createdAt,value
2022-11-20T00:04:25.162Z,-1.40
2022-11-20T00:06:55.536Z,-1.40
2022-11-20T00:09:26.304Z,-1.40
2022-11-20T00:11:58.533Z,-1.40
2022-11-20T00:16:59.483Z,-1.40
2022-11-20T00:19:28.575Z,-1.60
2022-11-20T00:21:59.748Z,-1.40
2022-11-20T00:24:29.650Z,-1.50
2022-11-20T00:26:59.688Z,-1.50
2022-11-20T00:29:30.188Z,-1.50
2022-11-20T00:32:00.192Z,-1.80
2022-11-20T00:34:30.533Z,-1.30
2022-11-20T00:37:01.162Z,-1.30
2022-11-20T00:39:33.833Z,-1.50
2022-11-20T00:44:32.518Z,-1.20
2022-11-20T00:49:36.746Z,-1.60
2022-11-20T00:52:06.918Z,-1.30
2022-11-20T00:54:36.881Z,-1.70
2022-11-20T00:57:10.151Z,-1.70
2022-11-20T01:04:37.303Z,-1.80
2022-11-20T01:07:07.225Z,-1.80
2022-11-20T01:09:37.224Z,1.00
2022-11-20T01:14:37.048Z,-1.80
2022-11-20T01:17:07.830Z,-1.90
2022-11-20T01:36:52.647Z,-1.80
2022-11-20T01:39:26.092Z,-1.90
2022-11-20T01:42:11.984Z,-1.90
2022-11-20T01:44:56.238Z,-1.90
2022-11-20T01:47:36.633Z,-2.00
2022-11-20T01:50:16.053Z,-1.90
2022-11-20T01:52:48.640Z,-1.80
2022-11-20T01:55:22.517Z,-1.70
2022-11-20T02:00:20.269Z,-2.00
2022-11-20T02:02:56.772Z,-2.00
2022-11-20T02:05:33.963Z,-1.90
2022-11-20T02:15:44.505Z,-2.80
2022-11-20T02:18:14.775Z,-2.00
2022-11-20T02:20:46.074Z,-1.90
2022-11-20T02:23:31.954Z,-2.00
2022-11-20T02:26:02.099Z,-1.90
2022-11-20T03:12:56.641Z,-1.90
2022-11-20T03:15:27.214Z,-2.00
2022-11-20T03:17:56.386Z,-2.00
2022-11-20T03:30:16.352Z,-1.70
2022-11-20T03:40:07.681Z,-2.10
2022-11-20T03:45:19.289Z,0.00
2022-11-20T04:12:26.485Z,-2.20
2022-11-20T04:24:45.496Z,-2.00
2022-11-20T05:36:32.157Z,-1.70
2022-11-20T05:39:01.747Z,-1.40
2022-11-20T05:41:30.228Z,-1.50
2022-11-20T05:46:28.926Z,-1.60
2022-11-20T05:48:58.124Z,-1.70
2022-11-20T05:51:27.460Z,-1.80
2022-11-20T06:01:23.864Z,-1.90
2022-11-20T06:03:52.186Z,-1.80
2022-11-20T06:06:20.720Z,-1.80
2022-11-20T06:08:49.242Z,-1.80
2022-11-20T06:11:17.900Z,-1.90
2022-11-20T06:16:16.904Z,-1.80
2022-11-20T06:21:16.059Z,-1.90
2022-11-20T06:26:17.898Z,-1.90
2022-11-20T06:31:17.882Z,-2.00
2022-11-20T06:33:49.164Z,-2.20
2022-11-20T06:36:22.887Z,-2.10
2022-11-20T06:38:53.029Z,-2.10
2022-11-20T06:41:25.127Z,-2.10
2022-11-20T06:43:55.798Z,-2.10
2022-11-20T06:46:25.838Z,-2.00
2022-11-20T06:48:57.257Z,-1.30
2022-11-20T06:53:58.146Z,-1.70
2022-11-20T06:58:58.074Z,-2.10
2022-11-20T07:08:52.836Z,-1.90
2022-11-20T07:18:50.490Z,-1.80
2022-11-20T07:21:19.436Z,-2.20
2022-11-20T07:28:46.372Z,-1.90
2022-11-20T07:33:47.720Z,-1.90
2022-11-20T07:43:41.271Z,-1.80
2022-11-20T07:56:02.412Z,-1.80
2022-11-20T07:58:31.367Z,-1.70
2022-11-20T08:16:03.768Z,-1.80
2022-11-20T08:18:34.505Z,-1.70
2022-11-20T08:21:07.158Z,-1.60
2022-11-20T08:31:02.133Z,-1.60
2022-11-20T08:33:30.958Z,-1.50
2022-11-20T08:36:03.293Z,-1.60
2022-11-20T08:41:19.684Z,-1.50
2022-11-20T08:43:47.326Z,-1.30
2022-11-20T08:48:46.243Z,-1.50
2022-11-20T08:51:16.803Z,-1.40
2022-11-20T08:56:13.590Z,-1.40
2022-11-20T08:59:10.298Z,-1.60
2022-11-20T09:01:35.207Z,-1.30
2022-11-20T09:04:06.205Z,-0.60
2022-11-20T09:06:36.563Z,-1.20
2022-11-20T09:09:07.971Z,-1.20
2022-11-20T09:11:38.159Z,-1.20
2022-11-20T09:14:06.408Z,-1.30
2022-11-20T09:16:36.076Z,-1.00
2022-11-20T09:24:29.111Z,-1.40
2022-11-20T09:34:24.183Z,-1.10
2022-11-20T09:42:08.768Z,-0.80
2022-11-20T09:45:05.123Z,-0.70
2022-11-20T09:47:53.235Z,-0.80
2022-11-20T09:50:41.090Z,-0.80
2022-11-20T09:53:27.929Z,-0.80
2022-11-20T09:55:57.339Z,-1.00
2022-11-20T09:58:33.527Z,-1.10
2022-11-20T10:01:12.143Z,-1.10
2022-11-20T10:04:05.701Z,-1.10
2022-11-20T10:06:34.489Z,-1.10
2022-11-20T10:09:23.163Z,-0.90
2022-11-20T10:12:18.257Z,-1.20
2022-11-20T10:15:09.332Z,-0.70
2022-11-20T10:18:00.587Z,-0.90
2022-11-20T10:20:53.668Z,-1.10
2022-11-20T10:23:38.026Z,-0.80
2022-11-20T10:26:23.007Z,-0.80
2022-11-20T10:29:11.452Z,-0.80
2022-11-20T10:31:43.596Z,-0.70
2022-11-20T10:34:31.602Z,-0.80
2022-11-20T10:37:04.941Z,-0.70
2022-11-20T10:39:50.191Z,-0.60
2022-11-20T10:42:32.106Z,-0.50
2022-11-20T10:45:23.121Z,-0.20
2022-11-20T10:50:23.318Z,-0.40
2022-11-20T10:53:06.719Z,-0.20
2022-11-20T10:55:54.760Z,-0.50
2022-11-20T10:58:46.303Z,-0.60
2022-11-20T11:01:19.377Z,-0.40
2022-11-20T11:03:47.698Z,-0.40
2022-11-20T11:06:42.404Z,-0.50
2022-11-20T11:09:16.757Z,-0.30
2022-11-20T11:11:44.976Z,-0.20
2022-11-20T11:14:17.745Z,-0.70
2022-11-20T11:16:56.924Z,-0.70
2022-11-20T11:21:58.189Z,-0.10
2022-11-20T11:24:46.255Z,-0.60
2022-11-20T11:27:19.563Z,-0.40
2022-11-20T11:29:48.386Z,-0.20
2022-11-20T11:32:23.371Z,-0.20
2022-11-20T11:35:10.116Z,-0.40
2022-11-20T11:37:42.795Z,-0.40
2022-11-20T11:40:23.941Z,-0.20
2022-11-20T11:42:59.527Z,-0.20
2022-11-20T11:45:27.999Z,-0.50
2022-11-20T11:48:01.439Z,-0.30
2022-11-20T11:50:33.757Z,-0.70
2022-11-20T11:53:13.219Z,-0.70
2022-11-20T11:56:04.217Z,-0.20
2022-11-20T11:59:00.958Z,-0.60
2022-11-20T12:01:45.949Z,-0.30
2022-11-20T12:04:46.978Z,-1.40
2022-11-20T12:07:45.346Z,-0.30
2022-11-20T12:10:24.461Z,-0.40
2022-11-20T12:13:09.409Z,-0.40
2022-11-20T12:15:37.706Z,-0.50
2022-11-20T12:18:15.880Z,-0.50
2022-11-20T12:20:58.504Z,-0.20
2022-11-20T12:23:36.752Z,-0.10
2022-11-20T12:26:15.339Z,-0.20
2022-11-20T12:28:54.809Z,-0.30
2022-11-20T12:31:44.334Z,-0.40
2022-11-20T12:34:43.567Z,-0.30
2022-11-20T12:37:46.774Z,-0.50
2022-11-20T12:40:51.134Z,-0.30
2022-11-20T12:43:44.578Z,-0.50
2022-11-20T12:46:28.576Z,-0.40
2022-11-20T12:49:18.506Z,-0.30
2022-11-20T12:52:08.361Z,-0.30
2022-11-20T12:54:51.421Z,-0.20
2022-11-20T12:57:38.782Z,-0.20
2022-11-20T13:00:17.124Z,-0.30
2022-11-20T13:03:16.573Z,-0.30
2022-11-20T13:06:16.870Z,-0.20
2022-11-20T13:08:56.123Z,-0.70
2022-11-20T13:11:35.938Z,-0.50
2022-11-20T13:14:17.641Z,-0.60
2022-11-20T13:16:56.268Z,-0.60
2022-11-20T13:19:32.698Z,-0.80
2022-11-20T13:24:33.586Z,-0.70
2022-11-20T13:27:05.171Z,-0.60
2022-11-20T13:29:37.260Z,-0.50
2022-11-20T13:32:22.523Z,-0.60
2022-11-20T13:35:02.659Z,-0.70
2022-11-20T13:37:35.997Z,-0.80
2022-11-20T13:40:15.753Z,-0.90
2022-11-20T13:42:53.413Z,-0.80
2022-11-20T13:45:28.183Z,-0.70
2022-11-20T13:48:02.778Z,-0.70
2022-11-20T13:51:04.189Z,-0.70
2022-11-20T13:53:56.924Z,-0.90
2022-11-20T13:56:45.277Z,-0.80
2022-11-20T13:59:41.257Z,-0.70
2022-11-20T14:02:20.441Z,-0.60
2022-11-20T14:04:52.870Z,-0.70
2022-11-20T14:07:25.512Z,-0.60
2022-11-20T14:10:01.823Z,-0.70
2022-11-20T14:12:36.011Z,-0.70
2022-11-20T14:15:07.023Z,-0.70
2022-11-20T14:17:39.156Z,-0.70
2022-11-20T14:20:14.564Z,-0.60
2022-11-20T14:22:57.139Z,-0.70
2022-11-20T14:25:32.554Z,-0.70
2022-11-20T14:28:02.831Z,-0.60
2022-11-20T14:30:55.993Z,-0.60
2022-11-20T14:33:26.931Z,-0.60
2022-11-20T14:35:59.686Z,-0.60
2022-11-20T14:38:31.180Z,-0.50
2022-11-20T14:41:17.566Z,-0.60
2022-11-20T14:43:49.141Z,-0.60
2022-11-20T14:46:17.184Z,-0.90
2022-11-20T14:48:58.215Z,-0.80
2022-11-20T14:51:33.144Z,-0.70
2022-11-20T14:54:17.608Z,-0.50
2022-11-20T14:57:08.659Z,-0.70
2022-11-20T14:59:36.788Z,-0.30
2022-11-20T15:02:10.297Z,-0.80
2022-11-20T15:05:04.428Z,-0.70
2022-11-20T15:07:36.838Z,-0.60
2022-11-20T15:10:07.795Z,-0.70
2022-11-20T15:12:39.834Z,-0.70
2022-11-20T15:15:13.003Z,-0.60
2022-11-20T15:17:45.743Z,-0.30
2022-11-20T15:20:17.372Z,-0.40
2022-11-20T15:25:16.111Z,-0.60
2022-11-20T15:27:48.550Z,-0.60
2022-11-20T15:30:20.521Z,-0.60
2022-11-20T15:35:19.215Z,-0.60
2022-11-20T15:45:43.013Z,-0.60
2022-11-20T15:48:15.186Z,-0.60
2022-11-20T15:51:10.850Z,-0.80
2022-11-20T15:53:41.236Z,-0.60
2022-11-20T15:56:15.210Z,-0.40
2022-11-20T16:01:14.596Z,-0.40
2022-11-20T16:03:45.763Z,-0.50
2022-11-20T16:11:17.167Z,-0.50
2022-11-20T16:16:33.114Z,-0.70
2022-11-20T16:19:01.685Z,-0.40
2022-11-20T16:24:02.252Z,-0.60
2022-11-20T16:29:00.898Z,-0.60
2022-11-20T16:33:59.386Z,-0.80
2022-11-20T16:36:31.181Z,-0.50
2022-11-20T16:39:01.362Z,-0.50
2022-11-20T16:41:32.108Z,-0.40
2022-11-20T16:44:02.258Z,-0.40
2022-11-20T16:46:32.356Z,1.10
2022-11-20T16:49:02.747Z,-0.50
2022-11-20T16:51:32.965Z,-0.50
2022-11-20T16:54:04.145Z,-0.60
2022-11-20T16:56:32.090Z,-0.80
2022-11-20T16:59:04.453Z,-0.60
2022-11-20T17:04:03.125Z,-0.70
2022-11-20T17:06:34.825Z,-0.80
2022-11-20T17:14:03.889Z,-0.80
2022-11-20T17:16:31.892Z,-0.80
2022-11-20T17:19:03.357Z,-1.00
2022-11-20T17:21:36.557Z,-0.80
2022-11-20T17:24:10.245Z,-0.90
2022-11-20T17:26:41.068Z,-0.70
2022-11-20T17:29:13.362Z,-0.70
2022-11-20T17:31:43.763Z,-0.70
2022-11-20T17:34:16.452Z,-0.90
2022-11-20T17:36:48.892Z,-0.80
2022-11-20T17:39:18.005Z,-0.80
2022-11-20T17:42:12.258Z,-0.80
2022-11-20T18:02:37.085Z,-1.00
2022-11-20T18:05:07.309Z,-1.10
2022-11-20T18:15:07.334Z,-1.20
2022-11-20T18:25:22.433Z,-0.80
2022-11-20T18:40:12.670Z,-0.90
2022-11-20T18:45:29.243Z,-1.00
2022-11-20T18:48:00.296Z,-1.00
2022-11-20T18:50:29.109Z,-1.20
2022-11-20T19:02:54.955Z,-1.10
2022-11-20T19:10:24.646Z,-1.10
2022-11-20T19:25:21.534Z,-1.40
2022-11-20T19:37:46.395Z,-1.10
2022-11-20T20:00:33.002Z,-1.00
2022-11-20T20:47:50.483Z,-0.80
2022-11-20T21:20:32.214Z,-1.00
2022-11-20T21:23:00.265Z,-1.40
2022-11-20T21:32:52.915Z,-1.50
2022-11-20T21:50:12.078Z,-1.30
2022-11-20T21:55:08.179Z,-0.80
2022-11-20T21:57:36.739Z,-1.40
2022-11-20T22:00:05.439Z,-1.20
2022-11-20T22:22:40.865Z,-1.50
2022-11-20T22:42:24.200Z,-1.10
2022-11-20T23:41:36.218Z,-1.90
2022-11-20T23:54:01.782Z,-1.60
